• Join FlightAware (Why Join?)
  • Login
  • US Flag 
04:19AM EDT


 

Airport Tracker/Info


-or-


 

Live Flight TrackerFlight Track Log ✈ SWA2521 ✈ 08-Mar-2013 ✈ KBWI - KMHT

Flight Track Log - Related Links

Times and Time Zones

All times are in EST time to prevent confusion due to time zone crossing. See the SWA2521 flight status page for this flight to view local times or setup timezone preferences in your user account.

Time Position Orientation Groundspeed Altitude Reporting Facility
EST Latitude Longitude Course Direction KTS MPH feet Rate Location/Type
10:30PM 39.1667 -76.7667 270° West 231 266 2,900  Level Potomac TRACON
10:32PM 39.1042 -76.6964 139° Southeast 150 173 7,600 2,400 Climbing Washington Center
10:33PM 39.1156 -76.6056 81° East 170 196 9,500 1,500 Climbing Washington Center
10:34PM 39.1267 -76.5014 82° East 243 280 10,700 1,800 Climbing Washington Center
10:35PM 39.1500 -76.4297 270° West  Level FlightAware Approximate
10:35PM 39.1358 -76.3811 84° East 292 336 13,100  Level Washington Center
10:36PM 39.1511 -76.2553 81° East 331 381 15,300 2,220 Climbing Washington Center
10:37PM 39.1664 -76.1136 82° East 357 411 17,600 1,860 Climbing Washington Center
10:38PM 39.1817 -75.9797 82° East 362 417 19,100 1,800 Climbing Washington Center
10:39PM 39.2131 -75.8514 72° East 374 430 21,200 1,440 Climbing Washington Center
10:40PM 39.2883 -75.7553 45° Northeast 356 410 22,000 360 Climbing Washington Center
10:41PM 39.3636 -75.6586 45° Northeast 366 421 22,000  Level Washington Center
10:42PM 39.4406 -75.5619 44° Northeast 372 428 22,000 660 Level Washington Center
10:43PM 39.5156 -75.4625 46° Northeast 377 434 23,400 1,500 Climbing Washington Center
10:44PM 39.5944 -75.3653 44° Northeast 383 441 25,100 1,920 Climbing Washington Center
10:45PM 39.6881 -75.2950 30° Northeast 383 441 27,300 2,220 Climbing Washington Center
10:46PM 39.7797 -75.2325 28° Northeast 378 435 29,600 2,040 Climbing Washington Center
10:47PM 39.8692 -75.1725 27° Northeast 366 421 31,400 1,500 Climbing Washington Center
10:48PM 39.9361 -75.1025 39° Northeast 373 429 32,500 1,440 Climbing New York Center
10:49PM 40.0178 -75.0289 35° Northeast 354 407 34,200 1,200 Climbing New York Center
10:50PM 40.1050 -74.9856 21° North 336 387 35,000 360 Climbing New York Center
10:51PM 40.1942 -74.9392 22° Northeast 331 381 35,000  Level New York Center
10:52PM 40.2875 -74.8931 21° North 343 395 35,000  Level New York Center
10:53PM 40.3828 -74.8525 18° North 354 407 35,000  Level New York Center
10:54PM 40.4778 -74.8117 18° North 354 407 35,000  Level New York Center
10:55PM 40.5731 -74.7708 18° North 354 407 35,000  Level New York Center
10:56PM 40.6681 -74.7300 18° North 354 407 35,000  Level New York Center
10:58PM 40.8783 -74.6389 18° North 354 407 35,000  Level Boston Center
10:59PM 40.9731 -74.5953 19° North 354 407 35,000  Level Boston Center
11:00PM 41.0761 -74.5492 19° North 354 407 35,000  Level Boston Center
11:01PM 41.1747 -74.5083 17° North 359 413 35,000  Level Boston Center
11:02PM 41.2628 -74.4753 16° North 359 413 35,000  Level Boston Center
11:03PM 41.3575 -74.4342 18° North 364 419 35,000  Level Boston Center
11:04PM 41.4519 -74.3872 20° North 364 419 35,000  Level Boston Center
11:05PM 41.5506 -74.3486 16° North 364 419 35,000 -540 Level Boston Center
11:06PM 41.6536 -74.3017 19° North 364 419 34,000 -1,080 Descending Boston Center
11:07PM 41.7397 -74.2625 19° North 364 419 32,900 -1,080 Descending Boston Center
11:08PM 41.8383 -74.2178 19° North 357 411 31,900 -960 Descending Boston Center
11:09PM 41.9328 -74.1758 18° North 352 405 31,000 -480 Descending Boston Center
11:10PM 41.9950 -74.0631 53° Northeast 357 411 31,000  Level Boston Center
11:11PM 42.0550 -73.9389 57° Northeast 357 411 31,000 -780 Level Boston Center
11:12PM 42.1086 -73.8169 59° Northeast 370 426 29,500 -1,920 Descending Boston Center
11:13PM 42.1683 -73.6922 57° Northeast 382 440 27,200 -1,800 Descending Boston Center
11:14PM 42.2239 -73.5700 58° Northeast 387 445 26,000 -1,320 Descending Boston Center
11:15PM 42.2814 -73.4419 59° Northeast 387 445 24,600 -1,500 Descending Boston Center
11:16PM 42.3386 -73.3136 59° Northeast 387 445 23,100 -1,500 Descending Boston Center
11:17PM 42.3958 -73.1850 59° Northeast 393 452 21,700 -1,320 Descending Boston Center
11:18PM 42.4528 -73.0592 58° Northeast 393 452 20,500 -1,140 Descending Boston Center
11:19PM 42.5078 -72.9358 59° Northeast 387 445 19,500 -780 Descending Boston Center
11:20PM 42.5603 -72.8206 58° Northeast 371 427 19,000 -480 Descending Boston Center
11:21PM 42.6022 -72.7081 63° Northeast 359 413 18,600 -600 Descending Boston Center
11:22PM 42.6400 -72.5783 68° East 359 413 17,900 -900 Descending Boston Center
11:23PM 42.6756 -72.4514 69° East 359 413 16,800 -1,380 Descending Boston Center
11:24PM 42.7089 -72.3328 69° East 346 398 15,200 -1,860 Descending Boston Center
11:25PM 42.7400 -72.2111 71° East 341 392 13,100 -2,160 Descending Boston Center
11:26PM 42.7769 -72.0836 68° East 330 380 10,900 -1,560 Descending Boston Center
11:27PM 42.8039 -71.9872 69° East 312 359 10,000 -1,080 Descending Boston Center
11:28PM 42.8222 -71.8825 77° East 269 310 8,800 -1,620 Descending Boston Center
11:29PM 42.8258 -71.7975 87° East 251 289 6,800 -1,800 Descending Boston Center
11:30PM 42.8294 -71.7211 86° East 251 289 5,300 -900 Descending Boston Center
11:31PM 42.8331 -71.6219 87° East 228 262 5,000 -600 Descending Boston Center
11:32PM 42.8367 -71.5369 87° East 206 237 4,100 -1,020 Descending Boston Center
11:33PM 42.8381 -71.4717 88° East 194 223 3,000 -1,080 Descending Boston Center
11:34PM 42.8500 -71.4092 75° East 165 190 2,000 -960 Descending Boston Center
11:35PM 42.8814 -71.4058 North 113 130 1,100 -840 Descending Boston Center
11:36PM 42.9147 -71.4225 340° North 102 117 400 -420 Descending Boston Center
11:37PM 42.9378 -71.4247 356° North 102 117 300 4,260 Descending Boston Center
11:38PM 42.9628 -71.4300 351° North 102 117 9,000 4,320 Climbing Boston Center
11:39PM 42.9900 -71.4381 348° North 102 117 9,000  Level Boston Center
11:41PM 42.9328 -71.4358 316° Northwest  Level Estimated
11:48PM 42.9328 -71.4358 316° Northwest  Level Estimated
11:49PM 42.9328 -71.4358 316° Northwest  Level Estimated
11:50PM 42.9328 -71.4358 316° Northwest  Level Estimated